createdAt,value
2023-04-07T00:03:06.994Z,11.53
2023-04-07T00:08:10.606Z,11.03
2023-04-07T00:13:13.568Z,10.90
2023-04-07T00:18:16.376Z,10.43
2023-04-07T00:23:19.946Z,12.43
2023-04-07T00:28:22.932Z,11.83
2023-04-07T00:33:26.291Z,11.37
2023-04-07T00:38:29.229Z,12.73
2023-04-07T00:43:32.281Z,13.00
2023-04-07T00:48:36.599Z,11.03
2023-04-07T00:53:39.794Z,10.93
2023-04-07T00:58:44.484Z,11.40
2023-04-07T01:03:59.445Z,10.37
2023-04-07T01:09:12.264Z,10.83
2023-04-07T01:14:18.146Z,11.40
2023-04-07T01:19:53.344Z,11.60
2023-04-07T01:26:00.539Z,10.03
2023-04-07T01:31:05.711Z,11.13
2023-04-07T01:36:10.438Z,11.97
2023-04-07T01:41:15.586Z,12.50
2023-04-07T01:46:18.426Z,11.97
2023-04-07T01:51:23.440Z,11.97
2023-04-07T01:56:26.432Z,11.97
2023-04-07T02:01:29.959Z,12.13
2023-04-07T02:06:39.655Z,10.73
2023-04-07T02:11:45.527Z,11.33
2023-04-07T02:16:49.306Z,10.60
2023-04-07T02:21:53.180Z,10.47
2023-04-07T02:26:56.412Z,10.70
2023-04-07T02:31:59.211Z,13.03
2023-04-07T02:37:02.271Z,11.97
2023-04-07T02:42:05.704Z,12.73
2023-04-07T02:47:08.936Z,12.60
2023-04-07T02:52:12.717Z,13.47
2023-04-07T02:57:15.765Z,12.80
2023-04-07T03:02:19.317Z,13.97
2023-04-07T03:07:22.343Z,13.10
2023-04-07T03:12:25.709Z,14.10
2023-04-07T03:17:28.756Z,13.33
2023-04-07T03:22:32.085Z,13.63
2023-04-07T03:27:35.086Z,14.27
2023-04-07T03:32:38.127Z,12.70
2023-04-07T03:37:41.158Z,14.13
2023-04-07T03:42:44.075Z,13.40
2023-04-07T03:47:47.283Z,13.43
2023-04-07T03:52:50.229Z,14.30
2023-04-07T03:57:53.273Z,12.83
2023-04-07T04:02:56.276Z,13.60
2023-04-07T04:07:59.260Z,12.50
2023-04-07T04:13:04.072Z,12.00
2023-04-07T04:18:07.098Z,11.43
2023-04-07T04:23:10.168Z,12.07
2023-04-07T04:28:13.250Z,11.67
2023-04-07T04:33:16.182Z,11.23
2023-04-07T04:38:19.626Z,12.27
2023-04-07T04:43:22.560Z,10.17
2023-04-07T04:48:25.404Z,10.87
2023-04-07T04:53:28.788Z,14.60
2023-04-07T04:58:32.393Z,15.90
2023-04-07T05:03:36.017Z,13.27
2023-04-07T05:08:39.030Z,11.67
2023-04-07T05:13:42.014Z,12.23
2023-04-07T05:18:44.922Z,12.03
2023-04-07T05:23:48.042Z,13.40
2023-04-07T05:28:51.030Z,11.50
2023-04-07T05:33:53.913Z,12.27
2023-04-07T05:38:56.912Z,9.30
2023-04-07T05:43:59.700Z,10.53
2023-04-07T05:49:16.812Z,10.40
2023-04-07T05:54:22.759Z,10.93
2023-04-07T05:59:26.536Z,9.57
2023-04-07T06:04:29.703Z,11.20
2023-04-07T06:09:32.726Z,10.10
2023-04-07T06:14:35.719Z,14.83
2023-04-07T06:19:38.701Z,12.73
2023-04-07T06:24:41.881Z,9.77
2023-04-07T06:29:44.968Z,11.63
2023-04-07T06:34:48.014Z,16.20
2023-04-07T06:39:51.140Z,10.27
2023-04-07T06:44:53.929Z,11.97
2023-04-07T06:49:56.837Z,15.87
2023-04-07T06:54:59.800Z,12.50
2023-04-07T07:00:02.982Z,15.30
2023-04-07T07:05:11.669Z,12.47
2023-04-07T07:10:14.444Z,17.33
2023-04-07T07:15:18.166Z,14.37
2023-04-07T07:20:23.548Z,14.27
2023-04-07T07:25:29.705Z,15.77
2023-04-07T07:30:32.847Z,15.60
2023-04-07T07:35:37.971Z,17.80
2023-04-07T07:40:41.233Z,17.70
2023-04-07T07:45:44.381Z,16.30
2023-04-07T07:50:48.474Z,14.87
2023-04-07T07:55:51.927Z,16.23
2023-04-07T08:00:55.094Z,15.37
2023-04-07T08:05:58.149Z,16.03
2023-04-07T08:11:01.309Z,14.03
2023-04-07T08:16:04.616Z,18.80
2023-04-07T08:21:07.690Z,14.57
2023-04-07T08:26:11.105Z,18.37
2023-04-07T08:31:14.060Z,33.03
2023-04-07T08:36:17.013Z,41.17
2023-04-07T08:41:47.284Z,22.93
2023-04-07T08:46:56.200Z,19.27
2023-04-07T08:52:04.060Z,20.13
2023-04-07T08:57:09.091Z,15.57
2023-04-07T09:02:12.175Z,16.57
2023-04-07T09:07:15.820Z,15.87
2023-04-07T09:12:19.078Z,14.87
2023-04-07T09:17:22.396Z,13.33
2023-04-07T09:22:54.970Z,16.43
2023-04-07T09:28:04.842Z,15.17
2023-04-07T09:33:07.939Z,12.83
2023-04-07T09:38:11.257Z,14.60
2023-04-07T09:43:19.492Z,15.83
2023-04-07T09:48:22.424Z,14.47
2023-04-07T09:53:49.583Z,15.53
2023-04-07T09:58:53.349Z,15.13
2023-04-07T10:03:57.141Z,16.83
2023-04-07T10:09:02.052Z,16.93
2023-04-07T10:14:05.709Z,17.63
2023-04-07T10:19:09.295Z,14.17
2023-04-07T10:24:51.755Z,15.50
2023-04-07T10:29:55.721Z,20.13
2023-04-07T10:35:01.312Z,17.63
2023-04-07T10:40:19.625Z,15.90
2023-04-07T10:45:48.391Z,14.17
2023-04-07T10:51:07.975Z,15.17
2023-04-07T10:56:11.164Z,16.13
2023-04-07T11:01:14.071Z,15.77
2023-04-07T11:06:17.071Z,29.53
2023-04-07T11:11:41.759Z,18.10
2023-04-07T11:16:45.864Z,16.43
2023-04-07T11:21:49.291Z,14.77
2023-04-07T11:26:52.278Z,14.93
2023-04-07T11:31:58.460Z,14.23
2023-04-07T11:37:25.001Z,12.47
2023-04-07T11:42:36.835Z,16.10
2023-04-07T11:47:40.968Z,12.23
2023-04-07T11:52:48.875Z,11.30
2023-04-07T11:57:52.781Z,13.40
2023-04-07T12:02:56.741Z,13.20
2023-04-07T12:08:00.369Z,13.73
2023-04-07T12:13:03.566Z,14.73
2023-04-07T12:18:06.976Z,14.10
2023-04-07T12:23:09.999Z,17.13
2023-04-07T12:28:12.967Z,17.10
2023-04-07T12:33:15.987Z,16.40
2023-04-07T12:38:19.098Z,15.97
2023-04-07T12:43:22.075Z,14.30
2023-04-07T12:48:27.396Z,14.63
2023-04-07T12:53:30.420Z,18.93
2023-04-07T12:58:33.455Z,16.50
2023-04-07T13:03:36.604Z,19.63
2023-04-07T13:08:40.841Z,18.67
2023-04-07T13:13:45.087Z,19.47
2023-04-07T13:18:48.091Z,19.30
2023-04-07T13:23:51.686Z,17.80
2023-04-07T13:28:54.753Z,16.17
2023-04-07T13:33:57.727Z,19.50
2023-04-07T13:39:00.790Z,20.17
2023-04-07T13:44:03.781Z,19.30
2023-04-07T13:49:07.505Z,20.90
2023-04-07T13:54:10.758Z,18.60
2023-04-07T13:59:13.694Z,18.33
2023-04-07T14:04:16.754Z,19.07
2023-04-07T14:09:20.029Z,20.80
2023-04-07T14:14:23.387Z,19.57
2023-04-07T14:19:26.498Z,15.73
2023-04-07T14:24:29.462Z,16.20
2023-04-07T14:29:32.777Z,16.50
2023-04-07T14:34:35.919Z,15.23
2023-04-07T14:39:39.519Z,16.93
2023-04-07T14:44:42.885Z,17.27
2023-04-07T14:49:45.924Z,28.37
2023-04-07T14:54:49.122Z,20.97
2023-04-07T14:59:52.181Z,17.63
2023-04-07T15:04:55.794Z,14.53
2023-04-07T15:09:59.906Z,19.77
2023-04-07T15:15:03.949Z,14.07
2023-04-07T15:20:07.576Z,20.10
2023-04-07T15:25:10.665Z,16.27
2023-04-07T15:30:13.829Z,17.63
2023-04-07T15:35:17.331Z,15.37
2023-04-07T15:40:20.748Z,14.63
2023-04-07T15:45:23.897Z,17.47
2023-04-07T15:50:29.924Z,15.47
2023-04-07T15:55:34.801Z,12.90
2023-04-07T16:00:39.305Z,13.80
2023-04-07T16:05:42.301Z,16.60
2023-04-07T16:10:45.760Z,17.80
2023-04-07T16:15:48.665Z,18.93
2023-04-07T16:20:51.811Z,28.70
2023-04-07T16:25:54.717Z,34.87
2023-04-07T16:30:57.547Z,20.20
2023-04-07T16:36:00.531Z,26.90
2023-04-07T16:41:04.811Z,26.03
2023-04-07T16:46:09.280Z,23.80
2023-04-07T16:51:19.594Z,21.90
2023-04-07T16:56:24.854Z,23.57
2023-04-07T17:01:30.143Z,23.17
2023-04-07T17:06:33.207Z,22.40
2023-04-07T17:11:36.205Z,23.97
2023-04-07T17:16:39.765Z,25.13
2023-04-07T17:21:43.317Z,24.73
2023-04-07T17:26:46.680Z,20.67
2023-04-07T17:31:49.947Z,25.70
2023-04-07T17:36:52.891Z,31.83
2023-04-07T17:41:55.771Z,32.50
2023-04-07T17:46:59.063Z,31.23
2023-04-07T17:52:02.056Z,27.90
2023-04-07T17:57:06.518Z,24.47
2023-04-07T18:02:10.312Z,25.73
2023-04-07T18:07:13.581Z,26.87
2023-04-07T18:12:16.499Z,28.67
2023-04-07T18:17:19.495Z,22.43
2023-04-07T18:22:22.680Z,20.90
2023-04-07T18:27:28.407Z,25.63
2023-04-07T18:32:31.441Z,20.73
2023-04-07T18:37:34.532Z,19.93
2023-04-07T18:42:37.467Z,22.80
2023-04-07T18:47:40.525Z,18.70
2023-04-07T18:52:43.654Z,20.63
2023-04-07T18:57:46.790Z,21.10
2023-04-07T19:02:49.894Z,23.77
2023-04-07T19:07:53.009Z,21.03
2023-04-07T19:12:56.040Z,20.53
2023-04-07T19:17:59.797Z,24.13
2023-04-07T19:23:08.297Z,22.63
2023-04-07T19:28:11.606Z,22.97
2023-04-07T19:33:14.728Z,22.53
2023-04-07T19:38:18.319Z,20.60
2023-04-07T19:43:21.327Z,20.07
2023-04-07T19:48:25.352Z,21.43
2023-04-07T19:53:29.377Z,22.37
2023-04-07T19:58:34.475Z,23.60
2023-04-07T20:03:39.897Z,19.80
2023-04-07T20:08:44.327Z,23.70
2023-04-07T20:13:49.153Z,24.00
2023-04-07T20:18:52.366Z,18.83
2023-04-07T20:23:55.274Z,21.80
2023-04-07T20:28:58.244Z,22.90
2023-04-07T20:34:01.363Z,22.03
2023-04-07T20:39:04.373Z,21.17
2023-04-07T20:44:09.447Z,21.80
2023-04-07T20:49:12.474Z,24.87
2023-04-07T20:54:17.019Z,21.43
2023-04-07T20:59:19.923Z,24.03
2023-04-07T21:04:24.764Z,28.67
2023-04-07T21:09:28.002Z,25.70
2023-04-07T21:14:32.208Z,21.10
2023-04-07T21:19:36.733Z,20.47
2023-04-07T21:24:40.246Z,20.23
2023-04-07T21:29:43.234Z,21.00
2023-04-07T21:34:46.248Z,18.20
2023-04-07T21:39:52.767Z,19.63
2023-04-07T21:44:55.889Z,16.27
2023-04-07T21:49:59.870Z,16.43
2023-04-07T21:55:02.884Z,19.07
2023-04-07T22:00:09.626Z,20.60
2023-04-07T22:05:12.701Z,17.50
2023-04-07T22:10:15.815Z,16.60
2023-04-07T22:15:19.047Z,14.33
2023-04-07T22:20:22.356Z,13.70
2023-04-07T22:25:26.012Z,12.57
2023-04-07T22:30:29.073Z,11.87
2023-04-07T22:35:32.186Z,13.40
2023-04-07T22:40:35.403Z,13.73
2023-04-07T22:45:38.383Z,17.73
2023-04-07T22:50:41.292Z,16.87
2023-04-07T22:55:44.393Z,16.77
2023-04-07T23:00:47.909Z,13.47
2023-04-07T23:05:50.917Z,17.53
2023-04-07T23:10:54.031Z,15.10
2023-04-07T23:15:58.122Z,21.40
2023-04-07T23:21:01.647Z,20.93
2023-04-07T23:26:06.796Z,14.90
2023-04-07T23:31:09.884Z,16.07
2023-04-07T23:36:12.835Z,16.53
2023-04-07T23:41:16.437Z,19.10
2023-04-07T23:46:19.581Z,15.77
2023-04-07T23:51:22.927Z,19.87
2023-04-07T23:56:26.224Z,16.23
